Time;durP1;ratioP1;P1;durP2;ratioP2;P2;SDS_P1;SDS_P2;PMS_P1;PMS_P2;Temp;Humidity;BMP_temperature;BMP_pressure;BME280_temperature;BME280_humidity;BME280_pressure;Samples;Min_cycle;Max_cycle;Signal;HPM_P1;HPM_P2
2022/06/22 00:00:53;;;;;;;7.28;2.40;;;;;;;22.47;43.36;100952.13;5022865;27;96795;-70
2022/06/22 00:03:21;;;;;;;7.53;2.40;;;;;;;22.40;43.52;100960.84;5027357;28;99287;-71
2022/06/22 00:05:52;;;;;;;4.57;2.28;;;;;;;22.21;44.57;100948.03;5026927;27;98951;-71
2022/06/22 00:08:21;;;;;;;6.10;2.40;;;;;;;22.11;45.26;100947.91;5028911;27;96799;-70
2022/06/22 00:10:53;;;;;;;5.82;2.55;;;;;;;22.04;45.50;100952.09;5023448;27;96964;-70
2022/06/22 00:13:23;;;;;;;7.93;2.70;;;;;;;21.91;45.72;100955.84;5025386;28;101586;-70
2022/06/22 00:15:51;;;;;;;6.78;2.60;;;;;;;21.92;46.25;100953.03;5026532;28;99077;-71
2022/06/22 00:18:28;;;;;;;6.88;2.30;;;;;;;21.88;46.30;100955.09;5029866;28;97577;-71
2022/06/22 00:20:58;;;;;;;5.10;2.03;;;;;;;21.80;46.87;100959.34;5032114;28;98624;-70
2022/06/22 00:23:28;;;;;;;7.78;2.58;;;;;;;21.68;47.00;100961.19;5027990;27;98970;-70
2022/06/22 00:26:06;;;;;;;6.57;2.50;;;;;;;21.53;47.93;100959.69;5030461;27;99255;-72
2022/06/22 00:28:55;;;;;;;6.57;2.83;;;;;;;21.70;47.75;100958.38;5029584;28;96766;-71
2022/06/22 00:31:29;;;;;;;7.60;2.53;;;;;;;21.47;48.09;100960.16;5030128;27;96955;-71
2022/06/22 00:34:03;;;;;;;11.10;2.60;;;;;;;21.51;47.75;100968.88;5032301;27;98786;-71
2022/06/22 00:36:35;;;;;;;7.13;2.50;;;;;;;21.42;48.04;100963.22;5027648;28;98063;-73
2022/06/22 00:39:18;;;;;;;6.38;2.33;;;;;;;21.44;47.56;100958.59;5030617;28;96790;-70
2022/06/22 00:41:48;;;;;;;7.07;2.45;;;;;;;21.39;47.75;100952.72;5021827;28;97546;-70
2022/06/22 00:44:17;;;;;;;6.45;2.70;;;;;;;21.17;48.25;100954.47;5024832;28;100803;-71
2022/06/22 00:46:49;;;;;;;4.90;2.30;;;;;;;21.17;48.24;100951.78;5030790;28;98945;-70
2022/06/22 00:49:20;;;;;;;6.53;2.47;;;;;;;21.40;47.71;100946.34;5031065;27;97173;-71
2022/06/22 00:51:48;;;;;;;5.35;2.30;;;;;;;21.42;47.29;100954.28;5027171;28;97814;-72
2022/06/22 00:54:23;;;;;;;7.63;2.28;;;;;;;21.27;47.03;100956.31;5028706;28;99328;-71
2022/06/22 00:56:55;;;;;;;5.95;2.25;;;;;;;21.37;46.83;100954.66;5032107;27;100764;-71
2022/06/22 00:59:26;;;;;;;6.15;2.72;;;;;;;21.49;45.85;100958.22;5027244;28;96979;-71
2022/06/22 01:01:56;;;;;;;8.48;2.55;;;;;;;21.25;46.76;100950.22;5027149;27;96841;-71
2022/06/22 01:04:28;;;;;;;7.38;2.08;;;;;;;21.33;46.71;100942.41;5028781;28;98998;-71
2022/06/22 01:07:01;;;;;;;8.32;2.60;;;;;;;21.09;47.55;100941.56;5030601;27;98338;-71
2022/06/22 01:09:36;;;;;;;4.97;2.28;;;;;;;21.16;47.44;100939.31;5031173;28;96923;-70
2022/06/22 01:12:22;;;;;;;5.30;2.15;;;;;;;21.24;47.07;100947.66;5027496;28;96904;-70
2022/06/22 01:14:58;;;;;;;4.68;2.08;;;;;;;21.39;46.27;100946.47;5027293;28;99604;-71
2022/06/22 01:17:28;;;;;;;5.45;2.20;;;;;;;21.35;45.20;100937.78;5031212;27;99144;-71
2022/06/22 01:20:02;;;;;;;6.43;2.40;;;;;;;21.46;44.23;100945.03;5025163;28;98006;-71
2022/06/22 01:22:43;;;;;;;5.97;2.10;;;;;;;21.43;44.01;100942.56;5030892;27;97369;-71
2022/06/22 01:25:27;;;;;;;4.13;2.13;;;;;;;21.38;44.31;100937.56;5026409;28;99391;-72
2022/06/22 01:27:55;;;;;;;4.72;2.60;;;;;;;21.28;44.73;100938.38;5027945;27;99464;-71
2022/06/22 01:30:24;;;;;;;6.25;2.33;;;;;;;21.32;44.47;100942.56;5027153;27;96821;-72
2022/06/22 01:32:51;;;;;;;6.13;2.92;;;;;;;21.17;45.40;100943.72;5028525;27;98380;-71
2022/06/22 01:35:23;;;;;;;8.25;2.47;;;;;;;21.23;45.33;100938.72;5030273;28;99281;-72
2022/06/22 01:37:49;;;;;;;9.18;2.50;;;;;;;21.50;44.40;100934.88;5031377;27;99168;-71
2022/06/22 01:40:18;;;;;;;8.57;2.38;;;;;;;21.60;44.12;100930.47;5030856;27;99833;-70
2022/06/22 01:42:53;;;;;;;8.20;2.42;;;;;;;21.24;44.75;100923.47;5026998;27;96887;-71
2022/06/22 01:45:36;;;;;;;6.60;2.45;;;;;;;21.37;43.71;100924.22;5030491;28;98882;-71
2022/06/22 01:48:11;;;;;;;5.43;2.13;;;;;;;21.44;42.61;100936.22;5027237;27;98904;-71
2022/06/22 01:50:46;;;;;;;3.22;1.50;;;;;;;21.31;42.82;100922.88;5030091;27;96798;-70
2022/06/22 01:53:20;;;;;;;5.93;1.92;;;;;;;21.47;42.29;100915.31;5024969;28;98334;-72
2022/06/22 01:55:53;;;;;;;4.10;2.00;;;;;;;21.61;42.06;100910.69;5030251;27;98933;-71
2022/06/22 01:58:39;;;;;;;3.92;1.73;;;;;;;21.50;41.84;100913.38;5027725;27;100107;-71
2022/06/22 02:01:20;;;;;;;6.95;1.80;;;;;;;21.27;41.57;100917.84;5029019;28;97816;-71
2022/06/22 02:03:59;;;;;;;5.38;1.55;;;;;;;21.27;41.69;100918.69;5028708;28;97637;-70
2022/06/22 02:09:21;;;;;;;6.05;1.83;;;;;;;21.28;42.53;100906.13;5028930;28;97443;-71
2022/06/22 02:12:18;;;;;;;5.03;1.95;;;;;;;21.18;43.36;100907.81;5025432;28;96831;-71
2022/06/22 02:14:42;;;;;;;3.83;1.50;;;;;;;21.11;43.49;100912.78;5020933;28;97249;-71
2022/06/22 02:17:13;;;;;;;5.18;1.80;;;;;;;20.96;43.85;100914.78;5029225;27;97678;-69
2022/06/22 02:19:42;;;;;;;4.38;1.40;;;;;;;20.90;43.83;100909.03;5026693;28;99171;-70
2022/06/22 02:22:12;;;;;;;1.67;1.40;;;;;;;20.84;43.96;100915.72;5031341;28;96868;-71
2022/06/22 02:24:43;;;;;;;4.30;1.80;;;;;;;20.77;44.83;100910.94;5025620;27;96931;-71
2022/06/22 02:27:13;;;;;;;3.33;1.70;;;;;;;20.99;44.66;100914.56;5026760;28;98977;-71
2022/06/22 02:29:42;;;;;;;7.70;1.67;;;;;;;20.90;45.10;100914.41;5032198;27;98913;-71
2022/06/22 02:32:13;;;;;;;5.07;2.13;;;;;;;20.62;46.21;100912.94;5026464;28;97216;-71
2022/06/22 02:34:42;;;;;;;3.90;1.98;;;;;;;20.52;45.92;100914.59;5027539;28;97463;-71
2022/06/22 02:37:10;;;;;;;2.58;1.80;;;;;;;20.56;46.31;100913.38;5025174;28;97788;-71
2022/06/22 02:39:44;;;;;;;8.77;1.73;;;;;;;20.48;46.63;100913.94;5031271;27;98726;-71
2022/06/22 02:44:55;;;;;;;4.60;1.98;;;;;;;20.49;46.39;100901.38;5025394;28;97833;-71
2022/06/22 02:47:26;;;;;;;3.38;1.77;;;;;;;20.53;46.36;100913.63;5029868;27;98322;-71
2022/06/22 02:49:56;;;;;;;7.93;2.10;;;;;;;20.22;47.21;100910.47;5024602;28;98814;-71
2022/06/22 02:52:27;;;;;;;3.38;1.80;;;;;;;20.09;47.71;100912.31;5030909;28;97117;-71
2022/06/22 02:54:57;;;;;;;6.35;2.25;;;;;;;20.34;47.04;100905.22;5029089;27;96820;-71
2022/06/22 02:57:33;;;;;;;3.22;1.88;;;;;;;20.39;47.39;100908.41;5024725;28;99459;-71
2022/06/22 03:00:01;;;;;;;6.47;1.98;;;;;;;20.25;47.72;100896.84;5024205;28;97716;-70
2022/06/22 03:02:29;;;;;;;6.03;2.10;;;;;;;20.34;47.73;100905.22;5028763;27;96833;-72
2022/06/22 03:04:58;;;;;;;7.70;1.92;;;;;;;20.27;47.57;100905.66;5029266;28;96843;-71
2022/06/22 03:07:25;;;;;;;7.10;2.25;;;;;;;20.20;47.59;100901.69;5029192;28;99273;-72
2022/06/22 03:09:53;;;;;;;6.60;2.20;;;;;;;20.26;47.83;100898.56;5030059;27;99079;-71
2022/06/22 03:12:19;;;;;;;5.75;2.40;;;;;;;20.11;47.97;100897.00;5025032;27;97254;-71
2022/06/22 03:14:53;;;;;;;8.70;2.35;;;;;;;20.14;47.82;100887.88;5029435;28;97848;-72
2022/06/22 03:17:24;;;;;;;5.00;1.85;;;;;;;20.20;48.09;100899.00;5025015;27;98668;-71
2022/06/22 03:20:03;;;;;;;5.57;2.03;;;;;;;20.12;48.43;100896.03;5025781;27;101254;-72
2022/06/22 03:22:33;;;;;;;5.90;1.60;;;;;;;20.11;48.47;100899.66;5027865;28;96813;-70
2022/06/22 03:25:06;;;;;;;6.55;2.10;;;;;;;20.14;48.47;100893.25;5026809;27;98855;-71
2022/06/22 03:27:36;;;;;;;8.00;1.73;;;;;;;20.25;48.54;100883.44;5030291;27;99342;-71
2022/06/22 03:30:07;;;;;;;8.90;1.98;;;;;;;20.59;47.77;100883.66;5027110;28;98937;-71
2022/06/22 03:32:40;;;;;;;5.25;1.88;;;;;;;20.89;46.77;100886.69;5025344;28;98933;-71
2022/06/22 03:35:12;;;;;;;5.35;2.17;;;;;;;21.08;46.14;100878.94;5027036;28;96902;-72
2022/06/22 03:37:44;;;;;;;4.90;1.90;;;;;;;21.17;46.06;100872.03;5025732;27;98895;-71
2022/06/22 03:40:15;;;;;;;4.60;2.22;;;;;;;21.24;45.77;100872.41;5023536;28;98931;-71
2022/06/22 03:42:47;;;;;;;5.50;2.17;;;;;;;21.03;46.33;100872.19;5026571;28;97829;-70
2022/06/22 03:45:18;;;;;;;9.02;2.90;;;;;;;21.05;45.86;100878.31;5029198;28;97009;-71
2022/06/22 03:47:53;;;;;;;5.70;2.22;;;;;;;20.99;46.94;100863.53;5027766;27;98961;-71
2022/06/22 03:50:28;;;;;;;6.70;1.90;;;;;;;20.98;47.50;100861.81;5025671;27;98774;-71
2022/06/22 03:53:01;;;;;;;5.35;2.70;;;;;;;21.12;47.08;100865.28;5030531;27;96781;-73
2022/06/22 03:55:35;;;;;;;5.00;2.00;;;;;;;21.08;47.46;100864.63;5025050;28;96895;-71
2022/06/22 03:58:04;;;;;;;10.27;2.40;;;;;;;21.08;47.26;100853.88;5024682;27;99235;-71
2022/06/22 04:00:33;;;;;;;7.05;2.22;;;;;;;21.15;46.88;100855.13;5028653;27;98984;-71
2022/06/22 04:03:00;;;;;;;4.82;2.20;;;;;;;21.28;47.42;100860.44;5024520;28;97042;-71
2022/06/22 04:05:33;;;;;;;4.80;1.70;;;;;;;21.27;47.70;100859.56;5026778;27;97850;-71
2022/06/22 04:08:00;;;;;;;7.47;1.92;;;;;;;21.45;47.41;100858.16;5027408;28;99534;-70
2022/06/22 04:10:37;;;;;;;5.25;2.38;;;;;;;21.64;46.93;100862.91;5025647;27;98872;-70
2022/06/22 04:13:07;;;;;;;5.30;1.90;;;;;;;21.62;47.56;100864.00;5028172;28;97702;-71
2022/06/22 04:15:37;;;;;;;7.68;2.08;;;;;;;21.72;47.37;100860.47;5021926;28;99081;-72
2022/06/22 04:18:12;;;;;;;5.80;2.00;;;;;;;21.90;46.63;100863.50;5026668;28;98431;-71
2022/06/22 04:20:51;;;;;;;4.20;1.98;;;;;;;22.07;46.39;100864.84;5025832;27;99137;-70
2022/06/22 04:23:23;;;;;;;7.63;2.22;;;;;;;22.17;46.08;100871.22;5028546;28;96920;-70
2022/06/22 04:25:51;;;;;;;3.00;1.85;;;;;;;22.26;45.97;100865.06;5020678;28;96905;-70
2022/06/22 04:28:20;;;;;;;4.13;2.03;;;;;;;22.50;45.18;100870.28;5029226;28;98280;-70
2022/06/22 04:30:50;;;;;;;4.90;2.05;;;;;;;22.60;44.59;100871.19;5024521;28;101365;-70
2022/06/22 04:33:23;;;;;;;7.85;2.38;;;;;;;22.49;44.70;100872.09;5023831;27;96849;-71
2022/06/22 04:35:56;;;;;;;4.82;2.53;;;;;;;22.85;43.53;100870.00;5025424;28;96721;-71
2022/06/22 04:38:30;;;;;;;5.40;2.38;;;;;;;23.00;42.86;100866.03;5028822;27;99447;-71
2022/06/22 04:41:04;;;;;;;7.82;2.30;;;;;;;23.21;41.95;100872.28;5027646;27;98336;-71
2022/06/22 04:43:33;;;;;;;5.43;2.63;;;;;;;23.40;41.30;100875.09;5026394;28;96843;-72
2022/06/22 04:46:00;;;;;;;5.85;2.40;;;;;;;23.72;40.42;100874.97;5027132;28;96970;-71
2022/06/22 04:48:29;;;;;;;7.03;2.67;;;;;;;23.83;40.33;100876.72;5027532;27;99587;-71
2022/06/22 04:51:01;;;;;;;6.80;2.55;;;;;;;24.05;39.53;100873.81;5025613;27;99309;-70
2022/06/22 04:53:30;;;;;;;5.95;3.03;;;;;;;24.22;39.51;100878.56;5025637;28;98484;-71
2022/06/22 04:56:01;;;;;;;7.63;2.90;;;;;;;24.29;39.08;100875.31;5023198;27;96854;-70
2022/06/22 04:58:40;;;;;;;8.32;3.40;;;;;;;24.09;39.21;100882.50;5022878;28;98975;-71
2022/06/22 05:01:07;;;;;;;3.95;2.30;;;;;;;24.14;39.04;100888.34;5022744;27;99212;-71
2022/06/22 05:03:34;;;;;;;8.73;3.30;;;;;;;24.69;37.77;100886.03;5021306;27;98765;-70
2022/06/22 05:06:07;;;;;;;7.85;2.47;;;;;;;25.45;35.79;100895.97;5019131;28;96956;-71
2022/06/22 05:08:39;;;;;;;5.97;3.05;;;;;;;25.93;35.10;100884.97;5024539;28;99102;-72
2022/06/22 05:11:14;;;;;;;5.63;2.55;;;;;;;25.75;35.10;100884.06;5023969;27;99401;-71
2022/06/22 05:13:43;;;;;;;7.72;2.90;;;;;;;25.62;35.43;100881.69;5023910;27;97949;-71
2022/06/22 05:16:14;;;;;;;8.25;2.80;;;;;;;26.77;34.59;100888.31;5025055;28;98949;-71
2022/06/22 05:18:43;;;;;;;8.00;2.88;;;;;;;28.85;29.95;100892.53;5026355;27;99192;-71
2022/06/22 05:21:16;;;;;;;8.52;2.80;;;;;;;28.76;29.87;100890.81;5021504;28;99110;-71
2022/06/22 05:23:45;;;;;;;9.50;2.80;;;;;;;27.56;31.36;100899.19;5026835;28;96872;-71
2022/06/22 05:26:13;;;;;;;7.53;3.00;;;;;;;27.11;31.88;100896.59;5025818;27;97067;-71
2022/06/22 05:28:44;;;;;;;7.95;2.72;;;;;;;27.17;32.47;100901.41;5030453;28;98943;-70
2022/06/22 05:31:15;;;;;;;8.38;2.65;;;;;;;26.78;33.18;100908.16;5030809;27;98166;-71
2022/06/22 05:33:46;;;;;;;8.95;2.50;;;;;;;26.76;33.10;100910.16;5026351;28;96879;-72
2022/06/22 05:36:19;;;;;;;7.22;3.50;;;;;;;26.41;33.71;100916.38;5026536;27;98918;-71
2022/06/22 05:38:47;;;;;;;9.23;3.13;;;;;;;26.45;33.75;100918.63;5029943;28;98981;-71
2022/06/22 05:41:18;;;;;;;17.67;3.42;;;;;;;26.15;34.19;100921.63;5028745;27;98797;-71
2022/06/22 05:43:45;;;;;;;12.00;3.05;;;;;;;26.32;33.99;100922.72;5032840;27;97630;-71
2022/06/22 05:46:13;;;;;;;7.90;3.30;;;;;;;26.36;34.11;100924.13;5028544;27;98469;-71
2022/06/22 05:48:44;;;;;;;6.72;2.75;;;;;;;26.27;34.12;100920.47;5030826;27;98920;-70
2022/06/22 05:51:17;;;;;;;6.55;3.47;;;;;;;26.18;34.19;100926.75;5030478;28;97743;-71
2022/06/22 05:53:49;;;;;;;10.07;3.08;;;;;;;26.40;34.32;100931.78;5027763;28;97014;-70
2022/06/22 05:56:22;;;;;;;7.95;2.88;;;;;;;26.63;33.86;100917.81;5032188;27;96938;-71
2022/06/22 05:58:56;;;;;;;7.05;2.80;;;;;;;26.67;33.62;100922.75;5031237;27;98948;-71
2022/06/22 06:01:29;;;;;;;10.95;3.20;;;;;;;26.33;32.78;100936.09;5023859;28;98621;-71
2022/06/22 06:04:02;;;;;;;8.10;3.22;;;;;;;26.72;32.92;100933.13;5025499;27;97005;-72
2022/06/22 06:06:37;;;;;;;7.05;2.55;;;;;;;26.86;32.55;100928.03;5028701;27;97009;-72
2022/06/22 06:09:06;;;;;;;9.15;3.15;;;;;;;26.81;32.85;100924.94;5030513;28;97717;-71
2022/06/22 06:11:39;;;;;;;7.03;2.65;;;;;;;27.06;32.34;100925.19;5026860;28;99017;-71
2022/06/22 06:14:13;;;;;;;8.88;3.30;;;;;;;26.91;32.32;100931.16;5032467;27;96763;-71
2022/06/22 06:16:45;;;;;;;12.85;3.50;;;;;;;26.89;32.43;100946.75;5026271;27;96877;-70
2022/06/22 06:19:15;;;;;;;12.57;2.55;;;;;;;27.25;31.56;100952.13;5031537;28;98710;-71
2022/06/22 06:21:44;;;;;;;8.68;2.80;;;;;;;27.40;31.05;100944.28;5032559;27;99118;-71
2022/06/22 06:24:18;;;;;;;9.60;3.13;;;;;;;27.29;31.27;100942.69;5028518;28;97197;-71
2022/06/22 06:29:39;;;;;;;5.82;2.05;;;;;;;27.61;29.58;100934.81;5030835;28;98552;-71
2022/06/22 06:32:27;;;;;;;11.30;2.53;;;;;;;27.51;29.40;100931.31;5033379;27;101708;-71
2022/06/22 06:34:56;;;;;;;9.45;2.42;;;;;;;27.62;29.03;100927.53;5022800;27;97949;-72
2022/06/22 06:37:43;;;;;;;8.27;2.25;;;;;;;27.99;28.70;100917.22;5029990;28;97520;-71
2022/06/22 06:40:15;;;;;;;8.23;2.70;;;;;;;27.92;27.90;100907.16;5027273;27;99025;-71
2022/06/22 06:42:50;;;;;;;6.68;2.05;;;;;;;28.18;27.28;100899.84;5026662;27;98885;-71
2022/06/22 06:45:21;;;;;;;3.55;2.03;;;;;;;28.50;26.48;100902.63;5023156;27;97120;-71
2022/06/22 06:47:51;;;;;;;8.00;1.63;;;;;;;28.84;25.43;100907.16;5027465;27;97345;-72
2022/06/22 06:50:23;;;;;;;8.30;1.80;;;;;;;28.80;24.91;100903.09;5025351;28;98068;-72
2022/06/22 06:52:59;;;;;;;5.25;1.83;;;;;;;28.72;25.31;100901.16;5024527;27;98990;-70
2022/06/22 06:55:34;;;;;;;3.72;1.40;;;;;;;29.02;24.53;100906.97;5027082;28;97511;-71
2022/06/22 06:58:12;;;;;;;11.40;1.20;;;;;;;28.28;24.25;100891.56;5029058;27;97389;-71
2022/06/22 07:00:40;;;;;;;2.00;1.02;;;;;;;28.61;24.59;100895.22;5028665;27;99085;-71
2022/06/22 07:03:14;;;;;;;3.60;1.23;;;;;;;28.79;24.39;100904.94;5025212;27;98951;-71
2022/06/22 07:05:41;;;;;;;4.72;1.17;;;;;;;28.52;24.34;100914.22;5027215;27;97214;-71
2022/06/22 07:08:15;;;;;;;2.45;0.90;;;;;;;28.68;23.77;100918.84;5024983;28;96917;-71
2022/06/22 07:10:48;;;;;;;5.95;2.75;;;;;;;28.90;23.85;100918.22;5023309;28;100708;-71
2022/06/22 07:13:21;;;;;;;7.93;2.13;;;;;;;28.20;24.41;100921.41;5023560;27;99342;-71
2022/06/22 07:15:52;;;;;;;4.38;1.30;;;;;;;28.35;24.76;100922.50;5019888;28;97270;-71
2022/06/22 07:18:23;;;;;;;4.55;1.17;;;;;;;28.52;24.70;100914.22;5025919;27;96991;-70
2022/06/22 07:20:55;;;;;;;6.68;1.60;;;;;;;28.76;24.23;100908.00;5027485;28;99348;-71
2022/06/22 07:23:29;;;;;;;4.68;1.58;;;;;;;29.01;23.99;100914.31;5025375;27;98856;-71
2022/06/22 07:26:02;;;;;;;4.72;1.80;;;;;;;29.13;24.23;100912.09;5021668;27;99721;-72
2022/06/22 07:28:34;;;;;;;4.75;1.52;;;;;;;29.54;23.57;100919.22;5024581;27;98013;-72
2022/06/22 07:31:06;;;;;;;4.32;1.13;;;;;;;28.90;24.20;100915.47;5027510;27;99046;-71
2022/06/22 07:33:41;;;;;;;5.55;1.17;;;;;;;28.32;24.83;100918.22;5023454;27;99342;-71
2022/06/22 07:36:13;;;;;;;3.13;1.00;;;;;;;28.65;24.38;100918.31;5027315;27;97437;-72
2022/06/22 07:38:48;;;;;;;5.53;1.58;;;;;;;29.47;23.68;100912.75;5023907;27;97590;-70
2022/06/22 07:41:20;;;;;;;3.92;0.98;;;;;;;29.88;23.52;100926.28;5026748;27;98969;-70
2022/06/22 07:43:48;;;;;;;4.40;1.27;;;;;;;29.95;23.08;100924.59;5027001;27;98851;-71
2022/06/22 07:46:21;;;;;;;5.95;1.42;;;;;;;29.28;23.47;100916.66;5024607;27;96797;-71
2022/06/22 07:48:51;;;;;;;3.60;1.10;;;;;;;28.28;24.85;100925.00;5028558;28;97351;-71
2022/06/22 07:51:24;;;;;;;3.40;0.98;;;;;;;28.43;24.50;100927.94;5025911;27;98950;-72
2022/06/22 07:53:56;;;;;;;6.60;1.00;;;;;;;28.86;24.36;100922.28;5028499;27;98957;-71
2022/06/22 07:56:32;;;;;;;4.45;1.20;;;;;;;29.42;23.79;100912.44;5022227;28;97697;-71
2022/06/22 07:59:03;;;;;;;4.75;0.85;;;;;;;29.20;23.92;100922.13;5026130;27;98902;-71
2022/06/22 08:01:35;;;;;;;3.55;1.10;;;;;;;29.59;23.20;100924.16;5024501;28;98956;-71
2022/06/22 08:04:06;;;;;;;2.35;1.15;;;;;;;29.45;22.71;100923.00;5010015;27;99851;-71
2022/06/22 08:06:38;;;;;;;3.70;0.98;;;;;;;28.89;23.40;100910.22;5022036;28;99484;-71
2022/06/22 08:09:15;;;;;;;5.80;1.52;;;;;;;28.86;23.05;100910.56;5023808;27;98403;-71
2022/06/22 08:11:47;;;;;;;3.00;0.93;;;;;;;29.02;23.59;100893.38;5023046;27;99034;-72
2022/06/22 08:14:20;;;;;;;4.28;0.93;;;;;;;29.54;22.64;100893.88;5025078;28;98889;-72
2022/06/22 08:16:51;;;;;;;2.13;1.00;;;;;;;29.65;22.44;100897.09;5023103;28;98253;-72
2022/06/22 08:19:18;;;;;;;2.92;0.80;;;;;;;29.58;23.08;100897.97;5027683;28;99762;-71
2022/06/22 08:21:49;;;;;;;4.70;0.80;;;;;;;29.77;23.04;100904.88;5027694;27;98937;-71
2022/06/22 08:24:19;;;;;;;6.75;1.20;;;;;;;29.65;23.10;100902.53;5026827;28;101045;-70
2022/06/22 08:26:47;;;;;;;4.30;1.30;;;;;;;29.46;23.29;100902.06;5023465;27;97363;-71
2022/06/22 08:29:17;;;;;;;4.63;1.20;;;;;;;29.09;22.82;100888.97;5024919;27;96921;-71
2022/06/22 08:31:49;;;;;;;4.15;1.27;;;;;;;29.04;22.93;100891.34;5022937;27;100667;-71
2022/06/22 08:34:22;;;;;;;4.63;0.90;;;;;;;29.03;22.77;100895.09;5022760;28;98802;-72
2022/06/22 08:36:54;;;;;;;3.83;1.60;;;;;;;29.24;22.68;100889.97;5021261;27;97181;-71
2022/06/22 08:39:27;;;;;;;2.97;0.90;;;;;;;29.48;22.41;100894.56;5030008;28;97605;-70
2022/06/22 08:42:00;;;;;;;2.90;0.90;;;;;;;29.46;22.98;100894.75;5023312;28;97855;-71
2022/06/22 08:44:37;;;;;;;2.28;0.70;;;;;;;29.61;22.15;100901.16;5027289;28;97638;-71
2022/06/22 08:47:42;;;;;;;4.38;0.80;;;;;;;29.86;22.35;100898.41;5024339;28;98212;-72
2022/06/22 08:50:20;;;;;;;1.95;0.60;;;;;;;30.07;21.48;100879.59;4982428;28;96901;-72
2022/06/22 08:53:02;;;;;;;3.10;1.15;;;;;;;29.73;22.34;100882.63;5019372;27;99052;-72
2022/06/22 08:55:47;;;;;;;4.68;1.25;;;;;;;30.08;22.15;100879.41;5023939;28;99726;-71
2022/06/22 08:58:29;;;;;;;6.40;1.05;;;;;;;29.82;22.08;100876.09;5031498;28;99035;-71
2022/06/22 09:01:04;;;;;;;3.10;0.77;;;;;;;29.58;22.37;100878.91;5027168;27;96867;-72
2022/06/22 09:04:15;;;;;;;3.83;1.27;;;;;;;29.56;21.34;100878.22;5026890;28;98056;-71
2022/06/22 09:07:15;;;;;;;4.35;1.00;;;;;;;29.77;21.32;100867.59;4984710;28;99531;-71
2022/06/22 09:10:19;;;;;;;5.25;3.08;;;;;;;30.23;21.23;100867.78;5030239;28;96845;-70
2022/06/22 09:13:06;;;;;;;2.30;0.70;;;;;;;29.63;20.32;100865.59;5025435;28;98457;-71
2022/06/22 09:15:43;;;;;;;5.32;1.30;;;;;;;29.61;20.56;100881.25;5022609;27;99792;-71
2022/06/22 09:18:29;;;;;;;2.90;0.80;;;;;;;29.59;20.73;100878.72;5030270;28;103554;-70
2022/06/22 09:21:06;;;;;;;1.93;0.80;;;;;;;29.73;21.03;100880.72;5027329;28;97117;-71
2022/06/22 09:23:39;;;;;;;2.40;0.65;;;;;;;29.89;21.27;100876.25;5031059;28;97190;-70
2022/06/22 09:26:14;;;;;;;3.38;0.65;;;;;;;29.67;20.24;100884.13;5025282;27;98850;-71
2022/06/22 09:28:47;;;;;;;9.13;1.00;;;;;;;29.68;20.42;100891.28;5029749;28;99109;-71
2022/06/22 09:31:36;;;;;;;5.35;1.10;;;;;;;29.62;20.94;100882.97;5031075;27;96919;-72
2022/06/22 09:34:23;;;;;;;4.50;1.63;;;;;;;30.26;21.15;100895.50;5026400;28;97247;-72
2022/06/22 09:37:21;;;;;;;1.73;0.88;;;;;;;30.29;20.00;100880.69;5024004;28;101996;-71
2022/06/22 09:40:19;;;;;;;3.17;0.88;;;;;;;29.56;20.05;100891.81;5030412;28;97841;-72
2022/06/22 09:43:01;;;;;;;2.25;0.60;;;;;;;29.68;19.93;100891.28;5028694;28;96808;-71
2022/06/22 09:45:44;;;;;;;4.70;0.80;;;;;;;30.02;19.89;100888.31;5030230;28;97630;-71
2022/06/22 09:48:33;;;;;;;2.45;0.93;;;;;;;29.83;19.83;100877.78;5029168;27;102258;-71
2022/06/22 09:51:14;;;;;;;4.25;0.70;;;;;;;29.74;20.18;100881.56;5027766;27;98768;-70
2022/06/22 09:56:19;;;;;;;3.90;0.93;;;;;;;29.32;20.74;100879.94;5028760;28;97253;-71
2022/06/22 09:57:07;;;;;;;1.92;0.80;;;;;;;29.73;19.99;100880.72;5026593;28;96825;-72
2022/06/22 10:00:04;;;;;;;4.78;0.70;;;;;;;29.57;20.48;100886.22;5029436;28;101749;-72
2022/06/22 10:02:59;;;;;;;3.47;0.98;;;;;;;29.67;21.18;100877.84;5024170;28;98855;-72
2022/06/22 10:05:49;;;;;;;2.72;0.90;;;;;;;29.62;21.48;100886.53;5029116;27;97155;-70
2022/06/22 10:08:28;;;;;;;3.72;0.88;;;;;;;29.78;20.67;100887.53;5028231;27;96995;-70
2022/06/22 10:11:04;;;;;;;4.68;0.88;;;;;;;29.49;21.29;100893.53;5027099;28;99115;-71
2022/06/22 10:13:57;;;;;;;3.67;1.10;;;;;;;29.49;21.27;100888.94;5027525;28;99152;-71
2022/06/22 10:16:40;;;;;;;1.85;0.75;;;;;;;29.69;20.46;100895.72;5028980;27;96892;-71
2022/06/22 10:19:27;;;;;;;3.20;1.10;;;;;;;29.01;21.86;100881.69;5026365;27;97077;-72
2022/06/22 10:22:06;;;;;;;2.97;1.13;;;;;;;29.31;21.68;100888.28;5029608;28;98919;-71
2022/06/22 10:24:53;;;;;;;4.55;1.15;;;;;;;29.71;20.93;100896.41;5027411;28;98816;-72
2022/06/22 10:27:39;;;;;;;;;;;;;;;29.69;20.34;100890.25;5030632;28;98143;-72
2022/06/22 10:30:17;;;;;;;5.88;1.40;;;;;;;29.57;20.03;100875.31;5030021;28;97177;-71
2022/06/22 10:33:27;;;;;;;4.95;1.13;;;;;;;29.92;19.93;100875.94;5024964;28;97775;-71
2022/06/22 10:36:25;;;;;;;3.95;1.23;;;;;;;30.05;20.36;100876.22;5025434;27;101631;-70
2022/06/22 10:39:11;;;;;;;2.50;0.93;;;;;;;30.08;20.25;100882.16;5034777;27;97034;-71
2022/06/22 10:45:09;;;;;;;3.10;1.10;;;;;;;29.73;21.61;100875.25;5016637;28;98384;-72
2022/06/22 10:47:52;;;;;;;;;;;;;;;29.75;21.24;100877.81;5029997;28;98796;-72
2022/06/22 10:50:35;;;;;;;3.60;1.08;;;;;;;29.53;21.33;100874.00;5025684;27;99004;-71
2022/06/22 10:53:37;;;;;;;2.60;0.82;;;;;;;29.61;21.14;100873.94;5014106;28;98904;-71
2022/06/22 10:56:18;;;;;;;2.67;0.95;;;;;;;29.44;21.67;100883.19;5015034;27;99121;-72
2022/06/22 10:59:06;;;;;;;4.68;0.90;;;;;;;29.27;20.89;100873.31;5022703;28;99202;-70
2022/06/22 11:01:52;;;;;;;3.97;2.05;;;;;;;29.30;20.79;100881.13;5028759;28;97391;-71
2022/06/22 11:04:50;;;;;;;3.75;0.93;;;;;;;29.54;20.30;100880.25;5029671;27;96894;-71
2022/06/22 11:07:44;;;;;;;5.88;1.42;;;;;;;29.58;20.14;100877.03;5028786;27;98867;-71
2022/06/22 11:10:29;;;;;;;2.38;1.00;;;;;;;29.76;20.35;100878.66;5027497;28;97619;-71
2022/06/22 11:13:14;;;;;;;4.07;1.10;;;;;;;29.98;20.26;100870.63;5026181;28;96923;-71
2022/06/22 11:16:05;;;;;;;2.88;1.15;;;;;;;29.92;20.12;100875.94;5024558;27;97168;-71
2022/06/22 11:18:53;;;;;;;5.03;1.50;;;;;;;30.30;20.38;100872.34;5018818;28;98388;-71
2022/06/22 11:21:37;;;;;;;3.40;0.75;;;;;;;29.78;20.75;100879.34;5027408;28;97637;-72
2022/06/22 11:24:36;;;;;;;4.15;1.20;;;;;;;29.64;21.10;100881.78;5024835;28;96898;-72
2022/06/22 11:33:20;;;;;;;1.70;0.77;;;;;;;29.99;21.12;100888.69;5026276;28;97042;-71
2022/06/22 11:36:01;;;;;;;3.38;1.00;;;;;;;30.18;20.22;100889.25;5023447;28;97010;-71
2022/06/22 11:39:00;;;;;;;4.43;0.90;;;;;;;30.07;20.20;100876.88;5024715;28;98667;-72
2022/06/22 11:41:49;;;;;;;6.43;2.30;;;;;;;30.18;20.48;100876.50;5025731;28;98075;-70
2022/06/22 11:44:38;;;;;;;2.10;0.70;;;;;;;30.38;20.12;100866.84;5023877;28;98901;-71
2022/06/22 11:47:11;;;;;;;5.22;1.00;;;;;;;30.02;20.85;100863.78;5029477;27;96811;-71
2022/06/22 11:49:45;;;;;;;3.28;1.00;;;;;;;30.16;19.92;100856.72;5023686;28;98197;-71
2022/06/22 11:52:33;;;;;;;3.60;0.77;;;;;;;30.34;20.05;100853.72;5026790;28;99959;-71
2022/06/22 11:55:18;;;;;;;3.05;1.23;;;;;;;29.59;21.01;100854.22;5024552;28;98820;-71
2022/06/22 11:58:01;;;;;;;5.18;1.05;;;;;;;29.89;20.74;100849.00;5024179;27;96868;-71
2022/06/22 12:00:36;;;;;;;1.42;0.80;;;;;;;30.18;20.65;100843.78;5024748;28;97396;-72
2022/06/22 12:03:31;;;;;;;4.40;1.40;;;;;;;30.46;19.91;100842.22;5025803;27;98956;-72
2022/06/22 12:06:16;;;;;;;2.63;0.80;;;;;;;30.27;20.08;100848.16;5011808;27;99294;-70
2022/06/22 12:09:01;;;;;;;2.25;1.20;;;;;;;30.26;19.87;100848.34;5025697;28;97428;-70
2022/06/22 12:11:37;;;;;;;2.45;0.70;;;;;;;30.41;20.21;100843.81;5028265;27;97365;-72
2022/06/22 12:17:27;;;;;;;1.33;0.60;;;;;;;29.86;20.30;100839.31;5026163;28;98165;-72
2022/06/22 12:20:09;;;;;;;6.30;1.00;;;;;;;30.20;20.37;100841.72;5031984;28;98942;-72
2022/06/22 12:22:57;;;;;;;2.20;0.88;;;;;;;30.57;19.56;100829.25;5029421;27;97150;-72
2022/06/22 12:25:35;;;;;;;3.60;1.08;;;;;;;30.81;19.26;100829.03;5027363;27;99057;-71